logo
Search for airport 
image banner adimage banner adimage banner ad
image banner ad

MRHO - Hacienda Rio Cuarto

Located in Sarapiqui, Costa Rica

ICAO - MRHO, IATA -

Data provided by Airmate  

General information

Coordinates: N10°33'60" W84°9'0"
Elevation is 197 feet MSL.
 
View others Airports in Heredia

Operational data

Special qualification required
Current time UTC:
Current local time:
Weather at : MROC - Juan Santamaria Intl ( 64 km )
METAR: MROC 170400Z 07010KT CAVOK 23/15 A3004 NOSIG
TAF: MROC 162300Z 1700/1724 11015KT 9999 FEW040 TX32/1719Z TN21/1711Z TEMPO 1718/1724 25010KT FEW020TCU
View NOTAMs / SUP AIP / TFR affecting this airport [VIEW]
Communications frequencies: [VIEW]

Runways:

RWY identifierQFULength (ft)Width (ft)SurfaceLDA (ft)
0200UNK
2000UNK

Airport contact information

Address: Sarapiqui Costa Rica

Satellite view of MRHO